createdAt,value
2023-03-19T00:00:28.807Z,11.60
2023-03-19T00:02:56.177Z,11.70
2023-03-19T00:05:23.088Z,11.60
2023-03-19T00:07:50.066Z,11.60
2023-03-19T00:10:17.272Z,11.70
2023-03-19T00:12:44.147Z,11.80
2023-03-19T00:15:14.218Z,11.80
2023-03-19T00:17:42.913Z,11.80
2023-03-19T00:20:12.234Z,11.90
2023-03-19T00:22:40.131Z,11.90
2023-03-19T00:25:08.633Z,11.90
2023-03-19T00:27:37.336Z,11.90
2023-03-19T00:30:06.279Z,11.90
2023-03-19T00:32:33.994Z,11.90
2023-03-19T00:35:01.374Z,11.90
2023-03-19T00:37:28.498Z,11.80
2023-03-19T00:39:56.135Z,11.70
2023-03-19T00:42:23.275Z,11.70
2023-03-19T00:44:50.283Z,11.70
2023-03-19T00:47:17.407Z,11.70
2023-03-19T00:49:44.352Z,11.70
2023-03-19T00:52:11.387Z,11.80
2023-03-19T00:54:38.378Z,11.80
2023-03-19T00:57:05.612Z,11.80
2023-03-19T00:59:32.559Z,11.70
2023-03-19T01:01:59.545Z,11.70
2023-03-19T01:04:26.629Z,11.70
2023-03-19T01:06:54.800Z,11.70
2023-03-19T01:09:22.067Z,11.80
2023-03-19T01:11:48.860Z,11.90
2023-03-19T01:14:17.104Z,11.90
2023-03-19T01:16:44.226Z,11.90
2023-03-19T01:19:12.384Z,11.90
2023-03-19T01:21:39.979Z,12.00
2023-03-19T01:24:07.819Z,11.90
2023-03-19T01:26:34.854Z,11.90
2023-03-19T01:29:01.918Z,11.90
2023-03-19T01:31:29.062Z,12.00
2023-03-19T01:33:56.232Z,12.00
2023-03-19T01:36:23.517Z,12.00
2023-03-19T01:38:50.585Z,12.10
2023-03-19T01:41:18.347Z,12.00
2023-03-19T01:43:46.189Z,12.00
2023-03-19T01:46:34.409Z,12.00
2023-03-19T01:49:07.734Z,11.80
2023-03-19T01:51:41.504Z,11.80
2023-03-19T01:54:13.520Z,11.90
2023-03-19T01:56:43.067Z,11.80
2023-03-19T01:59:26.272Z,11.80
2023-03-19T02:02:01.761Z,11.80
2023-03-19T02:04:31.689Z,11.80
2023-03-19T02:07:01.253Z,11.80
2023-03-19T02:09:29.226Z,11.70
2023-03-19T02:11:57.990Z,11.70
2023-03-19T02:14:25.158Z,11.60
2023-03-19T02:16:52.881Z,11.60
2023-03-19T02:19:49.391Z,11.50
2023-03-19T02:22:20.571Z,11.50
2023-03-19T02:24:56.767Z,11.50
2023-03-19T02:27:23.673Z,11.40
2023-03-19T02:29:50.735Z,11.40
2023-03-19T02:32:17.786Z,11.50
2023-03-19T02:34:45.236Z,11.50
2023-03-19T02:37:33.504Z,11.50
2023-03-19T02:40:16.556Z,11.30
2023-03-19T02:42:43.619Z,11.20
2023-03-19T02:45:11.622Z,11.20
2023-03-19T02:47:38.559Z,11.10
2023-03-19T02:50:06.289Z,11.20
2023-03-19T02:52:33.793Z,11.20
2023-03-19T02:55:01.000Z,11.20
2023-03-19T02:57:27.946Z,11.10
2023-03-19T02:59:55.137Z,11.10
2023-03-19T03:02:22.053Z,11.00
2023-03-19T03:04:49.071Z,11.00
2023-03-19T03:07:16.447Z,10.90
2023-03-19T03:09:43.222Z,10.90
2023-03-19T03:12:10.324Z,10.90
2023-03-19T03:14:38.037Z,10.80
2023-03-19T03:17:05.211Z,10.70
2023-03-19T03:19:32.195Z,10.60
2023-03-19T03:22:00.699Z,10.70
2023-03-19T03:24:28.048Z,10.60
2023-03-19T03:26:54.948Z,10.50
2023-03-19T03:29:22.099Z,10.50
2023-03-19T03:31:49.110Z,10.50
2023-03-19T03:34:16.228Z,10.50
2023-03-19T03:36:43.238Z,10.50
2023-03-19T03:39:10.421Z,10.40
2023-03-19T03:41:37.547Z,10.30
2023-03-19T03:44:04.444Z,10.20
2023-03-19T03:46:32.273Z,10.20
2023-03-19T03:48:59.283Z,10.20
2023-03-19T03:51:26.270Z,10.20
2023-03-19T03:53:53.448Z,10.20
2023-03-19T03:56:20.460Z,10.20
2023-03-19T03:58:47.589Z,10.10
2023-03-19T04:01:16.268Z,10.10
2023-03-19T04:03:43.190Z,10.00
2023-03-19T04:06:16.933Z,10.00
2023-03-19T04:08:44.168Z,9.90
2023-03-19T04:11:11.719Z,9.90
2023-03-19T04:13:38.862Z,9.80
2023-03-19T04:16:08.036Z,9.80
2023-03-19T04:18:35.319Z,9.80
2023-03-19T04:21:03.607Z,9.90
2023-03-19T04:23:30.880Z,9.90
2023-03-19T04:26:06.832Z,9.90
2023-03-19T04:28:34.605Z,9.80
2023-03-19T04:31:02.953Z,9.70
2023-03-19T04:33:30.307Z,9.80
2023-03-19T04:35:57.810Z,9.90
2023-03-19T04:38:28.576Z,9.80
2023-03-19T04:40:58.898Z,9.80
2023-03-19T04:43:26.181Z,9.70
2023-03-19T04:45:53.386Z,9.70
2023-03-19T04:48:20.585Z,9.70
2023-03-19T04:50:51.745Z,9.80
2023-03-19T04:53:20.580Z,9.80
2023-03-19T04:55:47.606Z,9.60
2023-03-19T04:58:16.219Z,9.60
2023-03-19T05:00:43.125Z,9.70
2023-03-19T05:03:10.011Z,9.70
2023-03-19T05:05:37.020Z,9.80
2023-03-19T05:08:04.247Z,9.90
2023-03-19T05:10:32.522Z,9.90
2023-03-19T05:12:59.473Z,9.80
2023-03-19T05:15:26.531Z,9.70
2023-03-19T05:17:53.790Z,9.60
2023-03-19T05:20:21.899Z,9.40
2023-03-19T05:22:48.832Z,9.40
2023-03-19T05:25:16.110Z,9.30
2023-03-19T05:27:42.980Z,9.40
2023-03-19T05:30:10.969Z,9.40
2023-03-19T05:32:38.369Z,9.60
2023-03-19T05:35:07.609Z,9.60
2023-03-19T05:37:34.421Z,9.70
2023-03-19T05:40:01.548Z,9.80
2023-03-19T05:42:28.501Z,9.80
2023-03-19T05:44:55.582Z,9.80
2023-03-19T05:47:22.750Z,9.70
2023-03-19T05:49:49.676Z,9.60
2023-03-19T05:52:16.799Z,9.60
2023-03-19T05:54:43.834Z,9.50
2023-03-19T05:57:10.837Z,9.50
2023-03-19T05:59:37.805Z,9.40
2023-03-19T06:02:04.938Z,9.40
2023-03-19T06:04:32.872Z,9.30
2023-03-19T06:06:59.839Z,9.20
2023-03-19T06:09:26.944Z,9.20
2023-03-19T06:11:53.901Z,9.30
2023-03-19T06:14:21.225Z,9.20
2023-03-19T06:16:48.072Z,9.30
2023-03-19T06:19:15.052Z,9.30
2023-03-19T06:21:42.100Z,9.20
2023-03-19T06:24:09.148Z,9.10
2023-03-19T06:26:37.353Z,9.30
2023-03-19T06:29:04.914Z,9.20
2023-03-19T06:31:32.095Z,9.20
2023-03-19T06:33:59.000Z,9.20
2023-03-19T06:36:26.224Z,9.30
2023-03-19T06:38:53.067Z,9.20
2023-03-19T06:41:20.148Z,9.20
2023-03-19T06:43:47.502Z,9.20
2023-03-19T06:46:14.697Z,9.30
2023-03-19T06:48:41.948Z,9.40
2023-03-19T06:51:08.703Z,9.60
2023-03-19T06:53:35.985Z,9.60
2023-03-19T06:56:02.797Z,9.80
2023-03-19T06:58:29.852Z,10.10
2023-03-19T07:00:56.903Z,10.70
2023-03-19T07:03:24.305Z,11.70
2023-03-19T07:05:51.955Z,12.80
2023-03-19T07:08:19.909Z,13.60
2023-03-19T07:10:46.796Z,14.40
2023-03-19T07:13:14.015Z,15.50
2023-03-19T07:15:42.040Z,16.90
2023-03-19T07:18:09.266Z,16.80
2023-03-19T07:20:37.470Z,16.20
2023-03-19T07:23:04.437Z,15.20
2023-03-19T07:25:32.426Z,14.50
2023-03-19T07:28:00.368Z,13.60
2023-03-19T07:30:27.343Z,13.00
2023-03-19T07:32:55.473Z,12.70
2023-03-19T07:35:22.671Z,12.50
2023-03-19T07:37:50.052Z,12.20
2023-03-19T07:40:18.113Z,12.10
2023-03-19T07:42:45.320Z,12.10
2023-03-19T07:45:13.374Z,12.00
2023-03-19T07:47:40.348Z,11.80
2023-03-19T07:50:08.117Z,12.00
2023-03-19T07:52:35.415Z,12.10
2023-03-19T07:55:02.255Z,12.10
2023-03-19T07:57:29.338Z,12.30
2023-03-19T07:59:56.322Z,12.30
2023-03-19T08:02:23.826Z,12.20
2023-03-19T08:04:51.252Z,12.30
2023-03-19T08:07:18.289Z,12.20
2023-03-19T08:09:45.333Z,12.50
2023-03-19T08:12:12.447Z,13.00
2023-03-19T08:14:39.540Z,13.70
2023-03-19T08:17:06.527Z,15.40
2023-03-19T08:19:33.514Z,17.50
2023-03-19T08:22:00.735Z,19.00
2023-03-19T08:24:28.880Z,18.90
2023-03-19T08:26:56.304Z,19.30
2023-03-19T08:29:26.250Z,18.70
2023-03-19T08:31:56.608Z,17.60
2023-03-19T08:34:23.613Z,17.20
2023-03-19T08:36:50.904Z,16.40
2023-03-19T08:39:17.653Z,16.10
2023-03-19T08:41:45.559Z,16.20
2023-03-19T08:44:12.768Z,15.60
2023-03-19T08:46:40.069Z,14.30
2023-03-19T08:49:07.093Z,14.20
2023-03-19T08:51:34.146Z,14.40
2023-03-19T08:54:01.236Z,14.50
2023-03-19T08:56:28.221Z,15.50
2023-03-19T08:58:56.987Z,16.60
2023-03-19T09:01:24.346Z,17.50
2023-03-19T09:03:51.428Z,17.70
2023-03-19T09:06:18.555Z,17.60
2023-03-19T09:08:46.138Z,18.10
2023-03-19T09:11:14.520Z,19.50
2023-03-19T09:13:41.799Z,20.50
2023-03-19T09:16:09.028Z,21.00
2023-03-19T09:18:36.257Z,21.20
2023-03-19T09:21:03.458Z,19.30
2023-03-19T09:23:30.361Z,17.80
2023-03-19T09:25:57.372Z,17.40
2023-03-19T09:28:24.650Z,16.80
2023-03-19T09:30:52.193Z,16.50
2023-03-19T09:33:21.304Z,16.40
2023-03-19T09:35:52.814Z,16.10
2023-03-19T09:38:22.314Z,16.10
2023-03-19T09:41:09.474Z,16.00
2023-03-19T09:43:37.537Z,15.80
2023-03-19T09:46:12.493Z,15.60
2023-03-19T09:48:39.220Z,15.40
2023-03-19T09:51:14.834Z,14.50
2023-03-19T09:53:48.240Z,14.30
2023-03-19T09:56:19.770Z,14.10
2023-03-19T09:58:47.720Z,14.20
2023-03-19T10:01:28.784Z,14.30
2023-03-19T10:04:12.919Z,14.20
2023-03-19T10:06:41.073Z,14.40
2023-03-19T10:09:29.689Z,13.90
2023-03-19T10:12:37.424Z,13.70
2023-03-19T10:15:15.632Z,13.70
2023-03-19T10:17:51.287Z,13.50
2023-03-19T10:20:56.658Z,13.40
2023-03-19T10:23:52.186Z,13.20
2023-03-19T10:26:21.643Z,13.20
2023-03-19T10:29:22.376Z,12.80
2023-03-19T10:32:08.515Z,12.70
2023-03-19T10:34:38.046Z,12.50
2023-03-19T10:37:12.408Z,12.40
2023-03-19T10:39:42.558Z,12.30
2023-03-19T10:42:41.311Z,12.50
2023-03-19T10:45:20.813Z,12.50
2023-03-19T10:47:47.700Z,12.50
2023-03-19T10:50:40.618Z,12.70
2023-03-19T10:53:33.609Z,13.00
2023-03-19T10:56:04.821Z,13.30
2023-03-19T10:58:34.489Z,13.40
2023-03-19T11:01:07.586Z,13.50
2023-03-19T11:03:39.845Z,13.50
2023-03-19T11:06:29.727Z,13.40
2023-03-19T11:09:15.458Z,13.40
2023-03-19T11:11:45.192Z,13.20
2023-03-19T11:14:19.630Z,13.30
2023-03-19T11:16:57.490Z,13.20
2023-03-19T11:19:28.217Z,13.60
2023-03-19T11:22:16.304Z,13.60
2023-03-19T11:25:01.066Z,14.00
2023-03-19T11:27:34.754Z,13.90
2023-03-19T11:30:13.777Z,14.10
2023-03-19T11:32:46.715Z,14.50
2023-03-19T11:35:29.254Z,15.00
2023-03-19T11:38:01.602Z,15.40
2023-03-19T11:40:41.921Z,15.60
2023-03-19T11:43:32.630Z,15.60
2023-03-19T11:46:15.108Z,16.10
2023-03-19T11:49:16.507Z,16.10
2023-03-19T11:52:33.351Z,16.00
2023-03-19T11:55:39.304Z,15.70
2023-03-19T11:58:29.878Z,15.40
2023-03-19T12:00:57.470Z,14.90
2023-03-19T12:04:00.550Z,15.10
2023-03-19T12:06:38.534Z,15.30
2023-03-19T12:09:35.329Z,15.40
2023-03-19T12:12:11.615Z,15.80
2023-03-19T12:15:12.464Z,16.10
2023-03-19T12:18:00.597Z,16.20
2023-03-19T12:20:55.144Z,16.10
2023-03-19T12:24:03.927Z,16.40
2023-03-19T12:27:05.869Z,17.20
2023-03-19T12:30:14.812Z,19.60
2023-03-19T12:33:00.824Z,19.50
2023-03-19T12:35:42.018Z,18.10
2023-03-19T12:38:28.080Z,17.40
2023-03-19T12:41:05.293Z,17.20
2023-03-19T12:43:57.266Z,16.60
2023-03-19T12:46:45.880Z,16.60
2023-03-19T12:49:24.733Z,16.40
2023-03-19T12:52:02.181Z,16.30
2023-03-19T12:54:45.821Z,16.40
2023-03-19T12:57:27.279Z,16.40
2023-03-19T13:00:01.711Z,16.30
2023-03-19T13:02:51.947Z,16.20
2023-03-19T13:05:44.043Z,15.80
2023-03-19T13:08:35.252Z,15.70
2023-03-19T13:11:06.653Z,15.50
2023-03-19T13:13:52.498Z,15.30
2023-03-19T13:16:37.412Z,15.40
2023-03-19T13:19:36.803Z,15.60
2023-03-19T13:22:10.650Z,15.80
2023-03-19T13:24:40.414Z,15.50
2023-03-19T13:27:12.058Z,15.40
2023-03-19T13:29:55.913Z,15.10
2023-03-19T13:32:29.557Z,15.00
2023-03-19T13:35:18.217Z,14.90
2023-03-19T13:38:04.297Z,14.80
2023-03-19T13:40:57.887Z,14.80
2023-03-19T13:43:31.181Z,14.90
2023-03-19T13:46:12.027Z,15.10
2023-03-19T13:49:08.381Z,14.90
2023-03-19T13:51:35.797Z,14.70
2023-03-19T13:54:16.267Z,14.70
2023-03-19T13:57:01.635Z,14.80
2023-03-19T13:59:39.868Z,14.70
2023-03-19T14:02:24.043Z,14.80
2023-03-19T14:04:58.587Z,14.70
2023-03-19T14:07:37.005Z,14.70
2023-03-19T14:10:07.252Z,14.30
2023-03-19T14:12:40.189Z,13.70
2023-03-19T14:15:10.471Z,13.30
2023-03-19T14:17:38.470Z,13.20
2023-03-19T14:20:12.790Z,13.10
2023-03-19T14:23:23.027Z,13.00
2023-03-19T14:26:05.874Z,13.20
2023-03-19T14:28:45.119Z,13.30
2023-03-19T14:31:35.266Z,13.10
2023-03-19T14:34:07.792Z,13.20
2023-03-19T14:36:41.318Z,13.20
2023-03-19T14:39:22.119Z,13.20
2023-03-19T14:41:58.231Z,13.30
2023-03-19T14:44:53.357Z,13.40
2023-03-19T14:47:45.729Z,13.40
2023-03-19T14:50:16.001Z,12.80
2023-03-19T14:53:24.503Z,12.00
2023-03-19T14:55:53.374Z,11.60
2023-03-19T14:58:20.980Z,11.80
2023-03-19T15:00:51.698Z,11.90
2023-03-19T15:03:26.216Z,12.00
2023-03-19T15:05:58.843Z,12.00
2023-03-19T15:08:26.761Z,12.10
2023-03-19T15:11:15.924Z,12.00
2023-03-19T15:13:48.575Z,12.10
2023-03-19T15:16:43.573Z,12.10
2023-03-19T15:19:11.459Z,12.20
2023-03-19T15:21:39.493Z,12.40
2023-03-19T15:24:13.398Z,12.50
2023-03-19T15:26:40.354Z,12.70
2023-03-19T15:29:12.062Z,12.70
2023-03-19T15:31:52.811Z,12.80
2023-03-19T15:34:29.764Z,12.80
2023-03-19T15:37:07.681Z,12.80
2023-03-19T15:39:41.768Z,12.80
2023-03-19T15:42:09.778Z,13.00
2023-03-19T15:45:11.722Z,12.70
2023-03-19T15:47:46.068Z,12.00
2023-03-19T15:50:19.752Z,11.60
2023-03-19T15:53:00.715Z,11.20
2023-03-19T15:55:27.982Z,11.10
2023-03-19T15:57:57.836Z,11.10
2023-03-19T16:00:24.674Z,11.20
2023-03-19T16:02:56.141Z,11.10
2023-03-19T16:05:27.907Z,11.20
2023-03-19T16:08:29.510Z,11.40
2023-03-19T16:11:29.390Z,11.60
2023-03-19T16:14:10.301Z,11.80
2023-03-19T16:16:40.707Z,12.10
2023-03-19T16:19:31.279Z,12.10
2023-03-19T16:22:00.738Z,12.20
2023-03-19T16:24:40.660Z,12.20
2023-03-19T16:27:15.008Z,12.00
2023-03-19T16:29:47.288Z,12.10
2023-03-19T16:32:26.194Z,12.10
2023-03-19T16:34:54.073Z,11.80
2023-03-19T16:37:23.624Z,11.50
2023-03-19T16:40:03.352Z,11.60
2023-03-19T16:42:32.932Z,11.80
2023-03-19T16:45:16.021Z,11.90
2023-03-19T16:47:54.768Z,11.80
2023-03-19T16:50:29.187Z,11.50
2023-03-19T16:52:58.630Z,11.30
2023-03-19T16:55:28.540Z,11.40
2023-03-19T16:58:05.560Z,11.50
2023-03-19T17:00:34.508Z,11.60
2023-03-19T17:03:01.837Z,11.70
2023-03-19T17:05:30.025Z,11.80
2023-03-19T17:07:57.175Z,11.90
2023-03-19T17:10:27.574Z,12.00
2023-03-19T17:12:56.314Z,12.00
2023-03-19T17:15:26.389Z,11.90
2023-03-19T17:17:56.046Z,11.80
2023-03-19T17:20:28.953Z,11.80
2023-03-19T17:22:55.895Z,11.80
2023-03-19T17:25:23.532Z,11.80
2023-03-19T17:27:50.689Z,11.90
2023-03-19T17:30:18.065Z,11.80
2023-03-19T17:32:49.604Z,11.80
2023-03-19T17:35:19.986Z,11.60
2023-03-19T17:37:48.680Z,11.50
2023-03-19T17:40:17.313Z,11.50
2023-03-19T17:42:44.700Z,11.50
2023-03-19T17:45:27.785Z,11.50
2023-03-19T17:47:56.873Z,11.50
2023-03-19T17:50:27.047Z,11.60
2023-03-19T17:52:54.082Z,11.60
2023-03-19T17:55:25.266Z,11.70
2023-03-19T17:57:52.935Z,11.60
2023-03-19T18:00:21.725Z,11.60
2023-03-19T18:02:51.677Z,11.60
2023-03-19T18:05:24.172Z,11.50
2023-03-19T18:07:55.343Z,11.40
2023-03-19T18:10:26.655Z,11.40
2023-03-19T18:12:54.712Z,11.50
2023-03-19T18:15:23.755Z,11.50
2023-03-19T18:17:57.268Z,11.50
2023-03-19T18:20:28.019Z,11.40
2023-03-19T18:22:55.016Z,11.40
2023-03-19T18:25:24.876Z,11.40
2023-03-19T18:27:51.922Z,11.50
2023-03-19T18:30:21.065Z,11.50
2023-03-19T18:32:51.449Z,11.30
2023-03-19T18:35:26.021Z,11.20
2023-03-19T18:37:53.528Z,11.20
2023-03-19T18:40:26.711Z,11.20
2023-03-19T18:42:53.845Z,11.20
2023-03-19T18:45:25.756Z,11.20
2023-03-19T18:47:54.153Z,11.10
2023-03-19T18:50:23.005Z,11.00
2023-03-19T18:52:52.437Z,10.90
2023-03-19T18:55:21.005Z,10.80
2023-03-19T18:57:54.287Z,10.80
2023-03-19T19:00:33.673Z,10.80
2023-03-19T19:03:01.933Z,10.80
2023-03-19T19:05:32.327Z,10.60
2023-03-19T19:08:03.444Z,10.30
2023-03-19T19:10:34.379Z,10.20
2023-03-19T19:13:02.885Z,10.00
2023-03-19T19:15:36.752Z,10.00
2023-03-19T19:18:20.379Z,9.80
2023-03-19T19:20:51.230Z,9.80
2023-03-19T19:23:21.004Z,9.80
2023-03-19T19:25:51.023Z,9.70
2023-03-19T19:28:26.672Z,9.30
2023-03-19T19:30:57.261Z,9.10
2023-03-19T19:33:34.708Z,9.10
2023-03-19T19:36:03.481Z,9.20
2023-03-19T19:38:31.395Z,9.10
2023-03-19T19:41:00.277Z,9.00
2023-03-19T19:43:31.139Z,8.80
2023-03-19T19:45:59.186Z,8.80
2023-03-19T19:48:28.427Z,9.00
2023-03-19T19:50:56.233Z,8.90
2023-03-19T19:53:29.409Z,8.90
2023-03-19T19:55:56.386Z,8.90
2023-03-19T19:58:34.034Z,8.90
2023-03-19T20:01:04.361Z,8.90
2023-03-19T20:03:35.549Z,8.80
2023-03-19T20:06:03.880Z,8.70
2023-03-19T20:08:31.189Z,8.60
2023-03-19T20:10:58.268Z,8.60
2023-03-19T20:13:33.573Z,8.50
2023-03-19T20:16:01.647Z,8.50
2023-03-19T20:18:32.810Z,8.40
2023-03-19T20:20:59.924Z,8.30
2023-03-19T20:23:27.007Z,8.30
2023-03-19T20:25:54.950Z,8.30
2023-03-19T20:28:27.963Z,8.30
2023-03-19T20:30:55.562Z,8.30
2023-03-19T20:33:26.001Z,8.30
2023-03-19T20:35:52.901Z,8.30
2023-03-19T20:38:19.983Z,8.30
2023-03-19T20:40:55.517Z,8.30
2023-03-19T20:43:35.365Z,8.20
2023-03-19T20:46:04.535Z,8.20
2023-03-19T20:48:32.633Z,8.30
2023-03-19T20:51:02.061Z,8.10
2023-03-19T20:53:29.474Z,7.80
2023-03-19T20:55:57.257Z,7.80
2023-03-19T20:58:34.858Z,7.70
2023-03-19T21:01:02.756Z,7.70
2023-03-19T21:03:32.149Z,7.60
2023-03-19T21:06:21.749Z,7.50
2023-03-19T21:08:53.254Z,7.50
2023-03-19T21:11:24.544Z,7.40
2023-03-19T21:13:53.928Z,7.40
2023-03-19T21:16:23.776Z,7.30
2023-03-19T21:18:53.892Z,7.20
2023-03-19T21:21:32.425Z,7.20
2023-03-19T21:24:19.293Z,7.20
2023-03-19T21:26:46.495Z,7.10
2023-03-19T21:29:27.206Z,7.10
2023-03-19T21:31:56.617Z,7.10
2023-03-19T21:34:23.671Z,7.10
2023-03-19T21:36:52.688Z,7.00
2023-03-19T21:39:19.711Z,6.90
2023-03-19T21:41:46.949Z,6.90
2023-03-19T21:44:18.115Z,7.00
2023-03-19T21:46:47.785Z,6.90
2023-03-19T21:49:15.286Z,6.90
2023-03-19T21:51:46.778Z,6.90
2023-03-19T21:54:15.635Z,6.90
2023-03-19T21:56:45.430Z,6.80
2023-03-19T21:59:17.081Z,6.80
2023-03-19T22:01:44.984Z,6.90
2023-03-19T22:04:11.935Z,6.80
2023-03-19T22:06:42.912Z,6.80
2023-03-19T22:09:09.844Z,6.90
2023-03-19T22:11:38.690Z,6.90
2023-03-19T22:14:14.802Z,7.00
2023-03-19T22:16:42.789Z,7.00
2023-03-19T22:19:14.578Z,7.00
2023-03-19T22:21:41.512Z,7.00
2023-03-19T22:24:08.366Z,7.00
2023-03-19T22:26:43.284Z,6.90
2023-03-19T22:29:25.511Z,6.80
2023-03-19T22:31:53.620Z,6.90
2023-03-19T22:34:24.160Z,6.90
2023-03-19T22:36:52.606Z,6.80
2023-03-19T22:39:19.732Z,6.90
2023-03-19T22:41:48.664Z,6.90
2023-03-19T22:44:24.892Z,7.00
2023-03-19T22:46:53.111Z,7.10
2023-03-19T22:49:20.189Z,7.10
2023-03-19T22:51:49.324Z,7.20
2023-03-19T22:54:17.169Z,7.20
2023-03-19T22:56:44.229Z,7.20
2023-03-19T22:59:12.102Z,7.30
2023-03-19T23:01:43.321Z,7.30
2023-03-19T23:04:31.869Z,7.30
2023-03-19T23:07:00.391Z,7.20
2023-03-19T23:09:32.143Z,7.00
2023-03-19T23:12:00.022Z,6.90
2023-03-19T23:14:30.550Z,6.90
2023-03-19T23:17:04.062Z,6.90
2023-03-19T23:19:36.667Z,6.90
2023-03-19T23:22:05.306Z,6.90
2023-03-19T23:24:34.700Z,6.80
2023-03-19T23:27:02.804Z,6.70
2023-03-19T23:29:39.800Z,6.80
2023-03-19T23:32:08.141Z,6.90
2023-03-19T23:34:42.555Z,7.00
2023-03-19T23:37:16.931Z,7.10
2023-03-19T23:39:44.799Z,7.30
2023-03-19T23:42:24.993Z,7.30
2023-03-19T23:44:54.747Z,7.50
2023-03-19T23:47:21.848Z,7.80
2023-03-19T23:49:49.033Z,8.00
2023-03-19T23:52:16.092Z,8.10
2023-03-19T23:54:43.093Z,8.20
2023-03-19T23:57:15.530Z,7.90
2023-03-19T23:59:45.365Z,7.80
